createdAt,value
2017-06-19T00:00:30.053Z,1023.94
2017-06-19T00:01:38.941Z,1023.9
2017-06-19T00:02:47.835Z,1023.94
2017-06-19T00:03:57.050Z,1023.89
2017-06-19T00:05:06.695Z,1023.88
2017-06-19T00:06:15.594Z,1023.89
2017-06-19T00:07:25.134Z,1023.87
2017-06-19T00:08:34.350Z,1023.88
2017-06-19T00:09:43.236Z,1023.87
2017-06-19T00:10:52.125Z,1023.89
2017-06-19T00:12:01.053Z,1023.85
2017-06-19T00:13:10.267Z,1023.86
2017-06-19T00:14:19.482Z,1023.88
2017-06-19T00:15:28.369Z,1023.84
2017-06-19T00:16:37.412Z,1023.87
2017-06-19T00:17:46.310Z,1023.87
2017-06-19T00:18:55.199Z,1023.86
2017-06-19T00:20:04.092Z,1023.83
2017-06-19T00:21:12.981Z,1023.83
2017-06-19T00:22:22.347Z,1023.84
2017-06-19T00:23:31.242Z,1023.82
2017-06-19T00:24:40.136Z,1023.83
2017-06-19T00:25:49.030Z,1023.86
2017-06-19T00:26:57.919Z,1023.83
2017-06-19T00:28:07.433Z,1023.84
2017-06-19T00:29:16.645Z,1023.86
2017-06-19T00:30:25.536Z,1023.83
2017-06-19T00:31:34.429Z,1023.85
2017-06-19T00:32:43.645Z,1023.82
2017-06-19T00:33:52.685Z,1023.8
2017-06-19T00:35:01.578Z,1023.8
2017-06-19T00:36:10.793Z,1023.78
2017-06-19T00:37:19.681Z,1023.84
2017-06-19T00:38:28.901Z,1023.82
2017-06-19T00:39:38.263Z,1023.81
2017-06-19T00:40:47.477Z,1023.86
2017-06-19T00:41:56.368Z,1023.8
2017-06-19T00:43:05.583Z,1023.82
2017-06-19T00:44:14.477Z,1023.81
2017-06-19T00:45:23.369Z,1023.82
2017-06-19T00:46:32.261Z,1023.81
2017-06-19T00:47:41.478Z,1023.8
2017-06-19T00:48:50.371Z,1023.81
2017-06-19T00:49:59.257Z,1023.76
2017-06-19T00:51:08.346Z,1023.79
2017-06-19T00:52:17.238Z,1023.75
2017-06-19T00:53:26.130Z,1023.78
2017-06-19T00:54:35.021Z,1023.72
2017-06-19T00:55:43.910Z,1023.75
2017-06-19T00:56:52.801Z,1023.7
2017-06-19T00:58:02.019Z,1023.7
2017-06-19T00:59:10.909Z,1023.72
2017-06-19T01:00:19.802Z,1023.69
2017-06-19T01:01:29.019Z,1023.62
2017-06-19T01:02:38.385Z,1023.69
2017-06-19T01:03:47.600Z,1023.68
2017-06-19T01:04:56.493Z,1023.67
2017-06-19T01:06:05.385Z,1023.65
2017-06-19T01:07:14.599Z,1023.61
2017-06-19T01:08:23.813Z,1023.59
2017-06-19T01:09:32.704Z,1023.61
2017-06-19T01:10:41.923Z,1023.61
2017-06-19T01:11:51.139Z,1023.57
2017-06-19T01:13:00.034Z,1023.6
2017-06-19T01:14:08.926Z,1023.61
2017-06-19T01:15:17.817Z,1023.62
2017-06-19T01:16:26.707Z,1023.53
2017-06-19T01:17:35.926Z,1023.6
2017-06-19T01:18:44.817Z,1023.57
2017-06-19T01:19:54.006Z,1023.56
2017-06-19T01:21:02.894Z,1023.57
2017-06-19T01:22:12.113Z,1023.56
2017-06-19T01:23:21.329Z,1023.55
2017-06-19T01:24:30.246Z,1023.59
2017-06-19T01:25:39.239Z,1023.62
2017-06-19T01:26:48.128Z,1023.62
2017-06-19T01:27:57.025Z,1023.59
2017-06-19T01:29:05.919Z,1023.61
2017-06-19T01:30:14.811Z,1023.6
2017-06-19T01:31:23.699Z,1023.59
2017-06-19T01:32:32.590Z,1023.62
2017-06-19T01:33:41.507Z,1023.57
2017-06-19T01:34:50.726Z,1023.59
2017-06-19T01:35:59.938Z,1023.58
2017-06-19T01:37:09.452Z,1023.61
2017-06-19T01:38:18.341Z,1023.56
2017-06-19T01:39:27.555Z,1023.59
2017-06-19T01:40:36.778Z,1023.55
2017-06-19T01:41:45.701Z,1023.52
2017-06-19T01:42:55.066Z,1023.54
2017-06-19T01:44:03.962Z,1023.54
2017-06-19T01:45:13.176Z,1023.54
2017-06-19T01:46:22.072Z,1023.53
2017-06-19T01:47:31.617Z,1023.54
2017-06-19T01:48:41.080Z,1023.54
2017-06-19T01:49:50.292Z,1023.53
2017-06-19T01:50:59.836Z,1023.52
2017-06-19T01:52:08.725Z,1023.55
2017-06-19T01:53:18.266Z,1023.55
2017-06-19T01:54:27.783Z,1023.49
2017-06-19T01:55:36.676Z,1023.5
2017-06-19T01:56:45.893Z,1023.48
2017-06-19T01:57:55.109Z,1023.43
2017-06-19T01:59:04.325Z,1023.42
2017-06-19T02:00:13.842Z,1023.41
2017-06-19T02:01:22.738Z,1023.39
2017-06-19T02:02:31.957Z,1023.39
2017-06-19T02:03:41.175Z,1023.44
2017-06-19T02:04:50.068Z,1023.35
2017-06-19T02:05:58.960Z,1023.39
2017-06-19T02:07:07.848Z,1023.37
2017-06-19T02:08:17.061Z,1023.39
2017-06-19T02:09:25.948Z,1023.39
2017-06-19T02:10:35.491Z,1023.36
2017-06-19T02:11:44.958Z,1023.4
2017-06-19T02:12:53.853Z,1023.39
2017-06-19T02:14:02.741Z,1023.41
2017-06-19T02:15:11.630Z,1023.38
2017-06-19T02:16:20.519Z,1023.37
2017-06-19T02:17:29.461Z,1023.34
2017-06-19T02:18:38.353Z,1023.39
2017-06-19T02:19:47.248Z,1023.37
2017-06-19T02:20:56.138Z,1023.37
2017-06-19T02:22:05.356Z,1023.37
2017-06-19T02:23:15.274Z,1023.35
2017-06-19T02:24:24.165Z,1023.34
2017-06-19T02:25:33.376Z,1023.37
2017-06-19T02:26:42.269Z,1023.36
2017-06-19T02:27:51.164Z,1023.36
2017-06-19T02:29:00.485Z,1023.37
2017-06-19T02:30:09.371Z,1023.34
2017-06-19T02:31:18.909Z,1023.34
2017-06-19T02:32:28.124Z,1023.35
2017-06-19T02:33:37.015Z,1023.31
2017-06-19T02:34:46.382Z,1023.35
2017-06-19T02:35:55.597Z,1023.32
2017-06-19T02:37:05.139Z,1023.35
2017-06-19T02:38:14.682Z,1023.34
2017-06-19T02:39:23.603Z,1023.32
2017-06-19T02:40:32.593Z,1023.34
2017-06-19T02:41:41.812Z,1023.3
2017-06-19T02:42:51.350Z,1023.29
2017-06-19T02:44:00.886Z,1023.33
2017-06-19T02:45:10.104Z,1023.28
2017-06-19T02:46:18.992Z,1023.29
2017-06-19T02:47:27.887Z,1023.28
2017-06-19T02:48:37.104Z,1023.28
2017-06-19T02:49:46.320Z,1023.28
2017-06-19T02:50:55.207Z,1023.29
2017-06-19T02:52:04.245Z,1023.32
2017-06-19T02:53:13.133Z,1023.3
2017-06-19T02:54:22.023Z,1023.27
2017-06-19T02:55:31.238Z,1023.32
2017-06-19T02:56:40.126Z,1023.27
2017-06-19T02:57:49.392Z,1023.28
2017-06-19T02:58:58.282Z,1023.29
2017-06-19T03:00:07.173Z,1023.26
2017-06-19T03:01:16.061Z,1023.24
2017-06-19T03:02:24.948Z,1023.28
2017-06-19T03:03:33.871Z,1023.26
2017-06-19T03:04:43.084Z,1023.31
2017-06-19T03:05:51.978Z,1023.29
2017-06-19T03:07:01.192Z,1023.21
2017-06-19T03:08:10.080Z,1023.26
2017-06-19T03:09:19.440Z,1023.24
2017-06-19T03:10:28.328Z,1023.23
2017-06-19T03:11:37.218Z,1023.28
2017-06-19T03:12:46.104Z,1023.25
2017-06-19T03:13:54.991Z,1023.26
2017-06-19T03:15:03.936Z,1023.27
2017-06-19T03:16:12.832Z,1023.28
2017-06-19T03:17:22.049Z,1023.26
2017-06-19T03:18:30.940Z,1023.28
2017-06-19T03:19:39.824Z,1023.27
2017-06-19T03:20:48.717Z,1023.23
2017-06-19T03:21:57.606Z,1023.23
2017-06-19T03:23:06.503Z,1023.24
2017-06-19T03:24:15.392Z,1023.27
2017-06-19T03:25:24.608Z,1023.22
2017-06-19T03:26:33.830Z,1023.3
2017-06-19T03:27:42.717Z,1023.29
2017-06-19T03:28:51.605Z,1023.29
2017-06-19T03:30:00.497Z,1023.27
2017-06-19T03:31:09.715Z,1023.22
2017-06-19T03:32:19.228Z,1023.24
2017-06-19T03:33:28.115Z,1023.25
2017-06-19T03:34:36.998Z,1023.24
2017-06-19T03:35:46.217Z,1023.19
2017-06-19T03:36:55.111Z,1023.21
2017-06-19T03:38:04.100Z,1023.24
2017-06-19T03:39:13.319Z,1023.19
2017-06-19T03:40:22.532Z,1023.17
2017-06-19T03:41:32.072Z,1023.15
2017-06-19T03:42:41.288Z,1023.22
2017-06-19T03:43:50.278Z,1023.21
2017-06-19T03:44:59.488Z,1023.17
2017-06-19T03:46:08.378Z,1023.18
2017-06-19T03:47:17.940Z,1023.17
2017-06-19T03:48:26.833Z,1023.16
2017-06-19T03:49:36.064Z,1023.23
2017-06-19T03:50:44.957Z,1023.22
2017-06-19T03:51:54.177Z,1023.17
2017-06-19T03:53:03.068Z,1023.22
2017-06-19T03:54:12.605Z,1023.25
2017-06-19T03:55:21.644Z,1023.26
2017-06-19T03:56:30.533Z,1023.23
2017-06-19T03:57:39.427Z,1023.25
2017-06-19T03:58:48.967Z,1023.25
2017-06-19T03:59:58.503Z,1023.23
2017-06-19T04:01:08.093Z,1023.23
2017-06-19T04:02:16.985Z,1023.24
2017-06-19T04:03:27.403Z,1023.26
2017-06-19T04:04:36.298Z,1023.26
2017-06-19T04:05:45.193Z,1023.3
2017-06-19T04:06:54.461Z,1023.28
2017-06-19T04:08:03.679Z,1023.28
2017-06-19T04:09:12.568Z,1023.27
2017-06-19T04:10:21.457Z,1023.29
2017-06-19T04:11:30.674Z,1023.28
2017-06-19T04:12:39.990Z,1023.31
2017-06-19T04:13:48.879Z,1023.3
2017-06-19T04:14:57.768Z,1023.26
2017-06-19T04:16:06.661Z,1023.26
2017-06-19T04:17:15.549Z,1023.28
2017-06-19T04:18:25.065Z,1023.3
2017-06-19T04:19:34.279Z,1023.28
2017-06-19T04:20:43.165Z,1023.34
2017-06-19T04:21:52.380Z,1023.33
2017-06-19T04:23:01.273Z,1023.32
2017-06-19T04:24:11.067Z,1023.31
2017-06-19T04:25:19.958Z,1023.34
2017-06-19T04:26:28.850Z,1023.35
2017-06-19T04:27:38.063Z,1023.35
2017-06-19T04:28:46.955Z,1023.38
2017-06-19T04:29:55.950Z,1023.35
2017-06-19T04:31:05.501Z,1023.37
2017-06-19T04:32:14.395Z,1023.39
2017-06-19T04:33:23.284Z,1023.36
2017-06-19T04:34:32.176Z,1023.38
2017-06-19T04:35:41.722Z,1023.36
2017-06-19T04:36:50.611Z,1023.4
2017-06-19T04:37:59.501Z,1023.38
2017-06-19T04:39:08.389Z,1023.32
2017-06-19T04:40:17.278Z,1023.33
2017-06-19T04:41:26.932Z,1023.38
2017-06-19T04:42:36.150Z,1023.36
2017-06-19T04:43:45.040Z,1023.33
2017-06-19T04:44:53.931Z,1023.34
2017-06-19T04:46:03.471Z,1023.31
2017-06-19T04:47:12.415Z,1023.36
2017-06-19T04:48:21.634Z,1023.31
2017-06-19T04:49:30.527Z,1023.27
2017-06-19T04:50:39.741Z,1023.26
2017-06-19T04:51:48.627Z,1023.28
2017-06-19T04:52:57.572Z,1023.26
2017-06-19T04:54:07.111Z,1023.25
2017-06-19T04:55:16.003Z,1023.26
2017-06-19T04:56:25.217Z,1023.28
2017-06-19T04:57:34.105Z,1023.27
2017-06-19T04:58:43.155Z,1023.27
2017-06-19T04:59:52.370Z,1023.26
2017-06-19T05:01:01.260Z,1023.24
2017-06-19T05:02:10.802Z,1023.23
2017-06-19T05:03:19.691Z,1023.22
2017-06-19T05:04:28.637Z,1023.2
2017-06-19T05:05:37.528Z,1023.21
2017-06-19T05:06:46.417Z,1023.21
2017-06-19T05:07:55.305Z,1023.23
2017-06-19T05:09:04.199Z,1023.21
2017-06-19T05:10:13.087Z,1023.21
2017-06-19T05:11:22.341Z,1023.19
2017-06-19T05:12:31.233Z,1023.21
2017-06-19T05:13:40.168Z,1023.21
2017-06-19T05:14:49.385Z,1023.19
2017-06-19T05:15:58.279Z,1023.18
2017-06-19T05:17:07.176Z,1023.21
2017-06-19T05:18:16.069Z,1023.24
2017-06-19T05:19:24.960Z,1023.2
2017-06-19T05:20:33.850Z,1023.2
2017-06-19T05:21:42.926Z,1023.21
2017-06-19T05:22:52.144Z,1023.18
2017-06-19T05:24:01.743Z,1023.19
2017-06-19T05:25:10.636Z,1023.19
2017-06-19T05:26:19.526Z,1023.22
2017-06-19T05:27:28.421Z,1023.18
2017-06-19T05:28:37.634Z,1023.17
2017-06-19T05:29:47.182Z,1023.18
2017-06-19T05:30:56.072Z,1023.13
2017-06-19T05:32:05.293Z,1023.18
2017-06-19T05:33:14.664Z,1023.17
2017-06-19T05:34:23.554Z,1023.19
2017-06-19T05:35:32.445Z,1023.15
2017-06-19T05:36:41.339Z,1023.19
2017-06-19T05:37:50.236Z,1023.15
2017-06-19T05:38:59.281Z,1023.13
2017-06-19T05:40:08.179Z,1023.11
2017-06-19T05:41:17.072Z,1023.12
2017-06-19T05:42:26.292Z,1023.12
2017-06-19T05:43:35.189Z,1023.17
2017-06-19T05:44:44.455Z,1023.13
2017-06-19T05:45:53.997Z,1023.14
2017-06-19T05:47:02.888Z,1023.13
2017-06-19T05:48:11.779Z,1023.15
2017-06-19T05:49:20.668Z,1023.16
2017-06-19T05:50:29.708Z,1023.12
2017-06-19T05:51:38.602Z,1023.15
2017-06-19T05:52:47.495Z,1023.14
2017-06-19T05:53:56.393Z,1023.15
2017-06-19T05:55:05.933Z,1023.19
2017-06-19T05:56:15.160Z,1023.17
2017-06-19T05:57:24.373Z,1023.16
2017-06-19T05:58:33.269Z,1023.2
2017-06-19T05:59:42.162Z,1023.18
2017-06-19T06:00:51.058Z,1023.16
2017-06-19T06:02:00.275Z,1023.2
2017-06-19T06:03:09.831Z,1023.2
2017-06-19T06:04:18.730Z,1023.16
2017-06-19T06:05:27.666Z,1023.16
2017-06-19T06:06:36.556Z,1023.14
2017-06-19T06:07:45.451Z,1023.2
2017-06-19T06:08:54.342Z,1023.14
2017-06-19T06:10:03.234Z,1023.12
2017-06-19T06:11:12.131Z,1023.14
2017-06-19T06:12:21.349Z,1023.14
2017-06-19T06:13:30.266Z,1023.1
2017-06-19T06:14:39.154Z,1023.1
2017-06-19T06:15:48.374Z,1023.1
2017-06-19T06:16:57.921Z,1023.1
2017-06-19T06:18:07.470Z,1023.13
2017-06-19T06:19:16.398Z,1023.15
2017-06-19T06:20:25.301Z,1023.15
2017-06-19T06:21:34.205Z,1023.18
2017-06-19T06:22:43.404Z,1023.18
2017-06-19T06:23:52.622Z,1023.17
2017-06-19T06:25:02.169Z,1023.19
2017-06-19T06:26:11.066Z,1023.18
2017-06-19T06:27:19.959Z,1023.19
2017-06-19T06:28:28.857Z,1023.21
2017-06-19T06:29:38.078Z,1023.16
2017-06-19T06:30:47.293Z,1023.18
2017-06-19T06:31:56.513Z,1023.15
2017-06-19T06:33:05.456Z,1023.17
2017-06-19T06:34:14.351Z,1023.13
2017-06-19T06:35:23.241Z,1023.14
2017-06-19T06:36:32.416Z,1023.14
2017-06-19T06:37:41.713Z,1023.15
2017-06-19T06:38:51.011Z,1023.13
2017-06-19T06:40:00.233Z,1023.11
2017-06-19T06:41:09.233Z,1023.14
2017-06-19T06:42:18.190Z,1023.13
2017-06-19T06:43:27.425Z,1023.13
2017-06-19T06:44:36.319Z,1023.16
2017-06-19T06:45:45.214Z,1023.19
2017-06-19T06:46:54.428Z,1023.13
2017-06-19T06:48:03.644Z,1023.11
2017-06-19T06:49:12.859Z,1023.18
2017-06-19T06:50:21.752Z,1023.13
2017-06-19T06:51:30.648Z,1023.12
2017-06-19T06:52:39.868Z,1023.1
2017-06-19T06:53:48.770Z,1023.15
2017-06-19T06:54:57.671Z,1023.13
2017-06-19T06:56:06.575Z,1023.12
2017-06-19T06:57:15.478Z,1023.09
2017-06-19T06:58:24.381Z,1023.09
2017-06-19T06:59:33.282Z,1023.09
2017-06-19T07:00:42.497Z,1023.13
2017-06-19T07:01:51.722Z,1023.11
2017-06-19T07:03:00.945Z,1023.1
2017-06-19T07:04:10.165Z,1023.07
2017-06-19T07:05:19.057Z,1023.09
2017-06-19T07:06:28.278Z,1023.08
2017-06-19T07:07:37.820Z,1023.05
2017-06-19T07:08:47.042Z,1023.07
2017-06-19T07:09:56.260Z,1023.04
2017-06-19T07:11:05.152Z,1022.98
2017-06-19T07:12:14.044Z,1023.02
2017-06-19T07:13:22.931Z,1022.99
2017-06-19T07:14:31.831Z,1023.03
2017-06-19T07:15:41.134Z,1022.99
2017-06-19T07:16:50.027Z,1022.99
2017-06-19T07:17:58.928Z,1023.02
2017-06-19T07:19:08.147Z,1022.98
2017-06-19T07:20:17.365Z,1022.96
2017-06-19T07:21:26.407Z,1022.95
2017-06-19T07:22:35.636Z,1022.95
2017-06-19T07:23:44.525Z,1022.95
2017-06-19T07:24:53.425Z,1022.96
2017-06-19T07:26:02.325Z,1022.95
2017-06-19T07:27:11.407Z,1022.94
2017-06-19T07:28:20.649Z,1022.97
2017-06-19T07:29:29.542Z,1022.95
2017-06-19T07:30:38.762Z,1022.95
2017-06-19T07:31:47.658Z,1022.99
2017-06-19T07:32:56.688Z,1022.99
2017-06-19T07:34:05.912Z,1023.04
2017-06-19T07:35:15.464Z,1023.07
2017-06-19T07:36:24.360Z,1023.03
2017-06-19T07:37:33.580Z,1023.08
2017-06-19T07:38:42.577Z,1023.02
2017-06-19T07:39:51.472Z,1023.04
2017-06-19T07:41:00.694Z,1023.03
2017-06-19T07:42:09.587Z,1023.05
2017-06-19T07:43:18.483Z,1023.05
2017-06-19T07:44:27.862Z,1023.03
2017-06-19T07:45:37.087Z,1023.06
2017-06-19T07:46:45.994Z,1022.98
2017-06-19T07:47:55.232Z,1023.02
2017-06-19T07:49:04.155Z,1022.97
2017-06-19T07:50:13.110Z,1022.98
2017-06-19T07:51:22.337Z,1023
2017-06-19T07:52:31.239Z,1022.93
2017-06-19T07:53:40.141Z,1022.95
2017-06-19T07:54:49.045Z,1022.94
2017-06-19T07:55:57.991Z,1022.91
2017-06-19T07:57:07.549Z,1022.89
2017-06-19T07:58:16.444Z,1022.94
2017-06-19T07:59:25.341Z,1022.94
2017-06-19T08:00:34.569Z,1022.92
2017-06-19T08:01:43.625Z,1022.92
2017-06-19T08:02:52.532Z,1022.94
2017-06-19T08:04:01.753Z,1022.9
2017-06-19T08:05:10.666Z,1022.87
2017-06-19T08:06:19.564Z,1022.86
2017-06-19T08:07:28.939Z,1022.8
2017-06-19T08:08:38.830Z,1022.84
2017-06-19T08:09:49.029Z,1022.8
2017-06-19T08:10:58.264Z,1022.82
2017-06-19T08:12:07.812Z,1022.8
2017-06-19T08:13:16.955Z,1022.81
2017-06-19T08:14:25.851Z,1022.79
2017-06-19T08:15:35.077Z,1022.81
2017-06-19T08:16:44.302Z,1022.8
2017-06-19T08:17:53.198Z,1022.75
2017-06-19T08:19:02.470Z,1022.75
2017-06-19T08:20:12.355Z,1022.77
2017-06-19T08:21:21.902Z,1022.74
2017-06-19T08:22:30.803Z,1022.72
2017-06-19T08:23:39.701Z,1022.73
2017-06-19T08:24:49.400Z,1022.73
2017-06-19T08:25:58.293Z,1022.73
2017-06-19T08:27:07.517Z,1022.69
2017-06-19T08:28:17.058Z,1022.71
2017-06-19T08:29:26.322Z,1022.69
2017-06-19T08:30:36.393Z,1022.74
2017-06-19T08:31:45.296Z,1022.72
2017-06-19T08:32:55.503Z,1022.75
2017-06-19T08:34:05.054Z,1022.7
2017-06-19T08:35:14.929Z,1022.7
2017-06-19T08:36:24.301Z,1022.71
2017-06-19T08:37:33.849Z,1022.67
2017-06-19T08:38:43.074Z,1022.67
2017-06-19T08:39:52.630Z,1022.63
2017-06-19T08:41:02.185Z,1022.63
2017-06-19T08:42:11.133Z,1022.65
2017-06-19T08:43:20.054Z,1022.62
2017-06-19T08:44:29.277Z,1022.6
2017-06-19T08:45:38.179Z,1022.55
2017-06-19T08:46:47.397Z,1022.59
2017-06-19T08:47:56.345Z,1022.61
2017-06-19T08:49:05.564Z,1022.57
2017-06-19T08:50:14.459Z,1022.59
2017-06-19T08:51:23.359Z,1022.55
2017-06-19T08:52:32.911Z,1022.56
2017-06-19T08:53:41.914Z,1022.53
2017-06-19T08:54:51.801Z,1022.55
2017-06-19T08:56:00.703Z,1022.51
2017-06-19T08:57:10.575Z,1022.54
2017-06-19T08:58:19.478Z,1022.48
2017-06-19T08:59:28.798Z,1022.53
2017-06-19T09:00:37.701Z,1022.5
2017-06-19T09:01:46.599Z,1022.47
2017-06-19T09:02:55.834Z,1022.5
2017-06-19T09:04:04.734Z,1022.45
2017-06-19T09:05:13.631Z,1022.45
2017-06-19T09:06:22.536Z,1022.45
2017-06-19T09:07:31.757Z,1022.4
2017-06-19T09:08:40.661Z,1022.41
2017-06-19T09:09:49.556Z,1022.41
2017-06-19T09:10:59.260Z,1022.39
2017-06-19T09:12:08.492Z,1022.41
2017-06-19T09:13:18.043Z,1022.33
2017-06-19T09:14:26.939Z,1022.38
2017-06-19T09:15:35.837Z,1022.36
2017-06-19T09:16:44.882Z,1022.37
2017-06-19T09:17:53.779Z,1022.37
2017-06-19T09:19:02.677Z,1022.32
2017-06-19T09:20:12.225Z,1022.35
2017-06-19T09:21:21.121Z,1022.32
2017-06-19T09:22:30.174Z,1022.32
2017-06-19T09:23:39.397Z,1022.33
2017-06-19T09:24:48.297Z,1022.29
2017-06-19T09:25:57.193Z,1022.26
2017-06-19T09:27:06.095Z,1022.32
2017-06-19T09:28:15.641Z,1022.3
2017-06-19T09:29:24.537Z,1022.31
2017-06-19T09:30:33.487Z,1022.25
2017-06-19T09:31:43.042Z,1022.28
2017-06-19T09:32:52.596Z,1022.31
2017-06-19T09:34:02.019Z,1022.22
2017-06-19T09:35:11.244Z,1022.24
2017-06-19T09:36:20.141Z,1022.22
2017-06-19T09:37:29.364Z,1022.21
2017-06-19T09:38:38.589Z,1022.19
2017-06-19T09:39:48.190Z,1022.2
2017-06-19T09:40:57.746Z,1022.19
2017-06-19T09:42:06.970Z,1022.23
2017-06-19T09:43:15.866Z,1022.22
2017-06-19T09:44:25.415Z,1022.2
2017-06-19T09:45:34.737Z,1022.22
2017-06-19T09:46:43.634Z,1022.22
2017-06-19T09:47:52.861Z,1022.17
2017-06-19T09:49:02.078Z,1022.19
2017-06-19T09:50:10.975Z,1022.22
2017-06-19T09:51:19.871Z,1022.18
2017-06-19T09:52:28.775Z,1022.17
2017-06-19T09:53:38.000Z,1022.14
2017-06-19T09:54:47.223Z,1022.11
2017-06-19T09:55:56.771Z,1022.1
2017-06-19T09:57:06.044Z,1022.1
2017-06-19T09:58:14.943Z,1022.12
2017-06-19T09:59:24.857Z,1022.13
2017-06-19T10:00:34.407Z,1022.09
2017-06-19T10:01:43.954Z,1022.09
2017-06-19T10:02:52.958Z,1022.12
2017-06-19T10:04:02.535Z,1022.09
2017-06-19T10:05:11.764Z,1022.1
2017-06-19T10:06:20.662Z,1022.07
2017-06-19T10:07:29.563Z,1022.06
2017-06-19T10:08:38.508Z,1022.06
2017-06-19T10:09:47.405Z,1022.06
2017-06-19T10:10:56.307Z,1022.05
2017-06-19T10:12:05.526Z,1022.04
2017-06-19T10:13:14.425Z,1022.03
2017-06-19T10:14:23.324Z,1022.06
2017-06-19T10:15:32.220Z,1022.02
2017-06-19T10:16:41.450Z,1022.01
2017-06-19T10:17:50.357Z,1022.03
2017-06-19T10:18:59.582Z,1022.07
2017-06-19T10:20:08.959Z,1022.08
2017-06-19T10:21:18.191Z,1022.02
2017-06-19T10:22:27.423Z,1022.04
2017-06-19T10:23:36.319Z,1021.99
2017-06-19T10:24:45.219Z,1022.02
2017-06-19T10:25:54.593Z,1022.03
2017-06-19T10:27:03.527Z,1022.03
2017-06-19T10:28:13.091Z,1022.03
2017-06-19T10:29:21.986Z,1022.01
2017-06-19T10:30:30.918Z,1021.98
2017-06-19T10:31:39.822Z,1021.99
2017-06-19T10:32:48.721Z,1021.99
2017-06-19T10:33:57.626Z,1022.01
2017-06-19T10:35:06.541Z,1021.99
2017-06-19T10:36:15.763Z,1021.93
2017-06-19T10:37:24.659Z,1021.94
2017-06-19T10:38:33.879Z,1021.95
2017-06-19T10:39:43.439Z,1021.93
2017-06-19T10:40:52.339Z,1021.93
2017-06-19T10:42:01.569Z,1021.9
2017-06-19T10:43:10.797Z,1021.86
2017-06-19T10:44:19.694Z,1021.89
2017-06-19T10:45:28.593Z,1021.87
2017-06-19T10:46:37.497Z,1021.84
2017-06-19T10:47:47.053Z,1021.84
2017-06-19T10:48:56.052Z,1021.88
2017-06-19T10:50:05.276Z,1021.82
2017-06-19T10:51:14.177Z,1021.81
2017-06-19T10:52:23.398Z,1021.8
2017-06-19T10:53:32.623Z,1021.78
2017-06-19T10:54:41.569Z,1021.78
2017-06-19T10:55:50.469Z,1021.79
2017-06-19T10:56:59.694Z,1021.76
2017-06-19T10:58:08.921Z,1021.75
2017-06-19T10:59:17.822Z,1021.79
2017-06-19T11:00:27.184Z,1021.7
2017-06-19T11:01:36.093Z,1021.67
2017-06-19T11:02:45.717Z,1021.64
2017-06-19T11:03:54.622Z,1021.63
2017-06-19T11:05:03.523Z,1021.59
2017-06-19T11:06:13.071Z,1021.64
2017-06-19T11:07:21.973Z,1021.65
2017-06-19T11:08:31.201Z,1021.61
2017-06-19T11:09:40.127Z,1021.67
2017-06-19T11:10:49.027Z,1021.64
2017-06-19T11:11:58.357Z,1021.6
2017-06-19T11:13:07.584Z,1021.61
2017-06-19T11:14:17.139Z,1021.58
2017-06-19T11:15:26.045Z,1021.54
2017-06-19T11:16:34.951Z,1021.58
2017-06-19T11:17:44.257Z,1021.62
2017-06-19T11:18:53.162Z,1021.57
2017-06-19T11:20:02.715Z,1021.52
2017-06-19T11:21:11.620Z,1021.51
2017-06-19T11:22:20.519Z,1021.57
2017-06-19T11:23:29.847Z,1021.57
2017-06-19T11:24:38.751Z,1021.55
2017-06-19T11:25:47.655Z,1021.57
2017-06-19T11:26:56.564Z,1021.57
2017-06-19T11:28:06.128Z,1021.53
2017-06-19T11:29:15.276Z,1021.53
2017-06-19T11:30:24.178Z,1021.44
2017-06-19T11:31:33.083Z,1021.47
2017-06-19T11:32:42.009Z,1021.47
2017-06-19T11:33:50.910Z,1021.4
2017-06-19T11:35:00.236Z,1021.39
2017-06-19T11:36:09.464Z,1021.41
2017-06-19T11:37:18.428Z,1021.39
2017-06-19T11:38:27.657Z,1021.35
2017-06-19T11:39:36.560Z,1021.37
2017-06-19T11:40:45.909Z,1021.34
2017-06-19T11:41:55.159Z,1021.35
2017-06-19T11:43:04.072Z,1021.31
2017-06-19T11:44:14.198Z,1021.3
2017-06-19T11:45:23.465Z,1021.32
2017-06-19T11:46:32.562Z,1021.29
2017-06-19T11:47:41.785Z,1021.26
2017-06-19T11:48:51.069Z,1021.24
2017-06-19T11:50:00.300Z,1021.23
2017-06-19T11:51:09.524Z,1021.24
2017-06-19T11:52:18.430Z,1021.23
2017-06-19T11:53:27.332Z,1021.24
2017-06-19T11:54:36.242Z,1021.24
2017-06-19T11:55:45.145Z,1021.2
2017-06-19T11:56:54.048Z,1021.23
2017-06-19T11:58:03.344Z,1021.22
2017-06-19T11:59:12.583Z,1021.12
2017-06-19T12:00:21.811Z,1021.11
2017-06-19T12:01:31.065Z,1021.14
2017-06-19T12:02:39.996Z,1021.05
2017-06-19T12:03:49.485Z,1021.03
2017-06-19T12:04:58.728Z,1021.15
2017-06-19T12:06:08.027Z,1021.15
2017-06-19T12:07:17.295Z,1021.02
2017-06-19T12:08:26.521Z,1021.01
2017-06-19T12:09:35.578Z,1021.11
2017-06-19T12:10:44.486Z,1021.12
2017-06-19T12:11:54.080Z,1021.09
2017-06-19T12:13:02.996Z,1021.08
2017-06-19T12:14:12.230Z,1021.06
2017-06-19T12:15:21.771Z,1021.07
2017-06-19T12:16:30.680Z,1021.04
2017-06-19T12:17:39.910Z,1021.04
2017-06-19T12:18:48.847Z,1021.05
2017-06-19T12:19:58.107Z,1021.08
2017-06-19T12:21:07.505Z,1021
2017-06-19T12:22:16.742Z,1020.95
2017-06-19T12:23:25.648Z,1020.94
2017-06-19T12:24:34.887Z,1020.94
2017-06-19T12:25:44.452Z,1020.9
2017-06-19T12:26:54.099Z,1020.96
2017-06-19T12:28:03.372Z,1020.94
2017-06-19T12:29:12.283Z,1020.96
2017-06-19T12:30:21.196Z,1020.94
2017-06-19T12:31:30.434Z,1020.88
2017-06-19T12:32:39.350Z,1020.87
2017-06-19T12:33:48.264Z,1020.82
2017-06-19T12:34:57.175Z,1020.87
2017-06-19T12:36:06.425Z,1020.87
2017-06-19T12:37:15.343Z,1020.87
2017-06-19T12:38:24.310Z,1020.82
2017-06-19T12:39:33.549Z,1020.85
2017-06-19T12:40:42.467Z,1020.84
2017-06-19T12:41:52.073Z,1020.81
2017-06-19T12:43:00.990Z,1020.82
2017-06-19T12:44:09.955Z,1020.82
2017-06-19T12:45:19.194Z,1020.77
2017-06-19T12:46:28.110Z,1020.71
2017-06-19T12:47:37.024Z,1020.77
2017-06-19T12:48:46.599Z,1020.86
2017-06-19T12:49:55.570Z,1020.88
2017-06-19T12:51:04.822Z,1020.93
2017-06-19T12:52:14.058Z,1020.93
2017-06-19T12:53:22.978Z,1020.86
2017-06-19T12:54:31.893Z,1020.78
2017-06-19T12:55:40.956Z,1020.76
2017-06-19T12:56:50.525Z,1020.73
2017-06-19T12:57:59.445Z,1020.74
2017-06-19T12:59:08.360Z,1020.58
2017-06-19T13:00:17.600Z,1020.6
2017-06-19T13:01:27.266Z,1020.69
2017-06-19T13:02:36.179Z,1020.55
2017-06-19T13:03:45.091Z,1020.64
2017-06-19T13:04:54.004Z,1020.69
2017-06-19T13:06:02.915Z,1020.68
2017-06-19T13:07:11.873Z,1020.57
2017-06-19T13:08:20.798Z,1020.5
2017-06-19T13:09:29.718Z,1020.49
2017-06-19T13:10:38.634Z,1020.54
2017-06-19T13:11:47.600Z,1020.56
2017-06-19T13:12:56.533Z,1020.6
2017-06-19T13:14:05.791Z,1020.63
2017-06-19T13:15:14.707Z,1020.59
2017-06-19T13:16:23.973Z,1020.51
2017-06-19T13:17:33.216Z,1020.5
2017-06-19T13:18:42.458Z,1020.35
2017-06-19T13:19:51.700Z,1020.32
2017-06-19T13:21:00.614Z,1020.25
2017-06-19T13:22:09.552Z,1020.3
2017-06-19T13:23:18.795Z,1020.43
2017-06-19T13:24:27.711Z,1020.39
2017-06-19T13:25:36.640Z,1020.35
2017-06-19T13:26:45.884Z,1020.37
2017-06-19T13:27:55.471Z,1020.35
2017-06-19T13:29:04.764Z,1020.34
2017-06-19T13:30:13.684Z,1020.37
2017-06-19T13:31:23.260Z,1020.38
2017-06-19T13:32:32.503Z,1020.32
2017-06-19T13:33:41.781Z,1020.34
2017-06-19T13:34:50.949Z,1020.16
2017-06-19T13:36:00.202Z,1020.36
2017-06-19T13:37:09.444Z,1020.3
2017-06-19T13:38:18.364Z,1020.33
2017-06-19T13:39:27.282Z,1020.09
2017-06-19T13:40:36.495Z,1020.14
2017-06-19T13:41:45.412Z,1020.13
2017-06-19T13:42:54.662Z,1020.2
2017-06-19T13:44:03.908Z,1020.32
2017-06-19T13:45:12.823Z,1020.29
2017-06-19T13:46:22.077Z,1020.27
2017-06-19T13:47:30.993Z,1020.28
2017-06-19T13:48:40.559Z,1020.27
2017-06-19T13:49:49.504Z,1020.3
2017-06-19T13:50:58.744Z,1020.27
2017-06-19T13:52:07.814Z,1020.25
2017-06-19T13:53:16.735Z,1020.25
2017-06-19T13:54:25.660Z,1020.27
2017-06-19T13:55:34.582Z,1020.25
2017-06-19T13:56:43.501Z,1020.19
2017-06-19T13:57:52.417Z,1020.22